aviador You're here:

LFOA Decoded Metar

AVORD in FRANCE
Report Time2018-05-28 05:00:00
UTC Time2018-05-28 05:17:58
Flight Rules vfr VFR
Wind100° at 05 kt
W.Decomp.*RWY 06: 3.8 kt HW 3.2 kt RCW
W.Rank100° ranks 14
Current wind is below 100° avg. (5.3)
Visibility9999 m
Phenomena:N/A
Clouds:N/A
Expected CloudBase > 1,200 ft AGL from Temp-Dew spread
CeilingNone
Temp16°C (ISA +2)
Dew Point13°C (83% RH)
AAT15.2°C
QNH1016 hPa
Density Alt945 ft
Elevation587 ft
Report Wrong Elevation
Raw Report
LFOA 280500Z AUTO 10005KT 9999 // NCD 16/13 Q1016=

Extra information for LFOA:More info

Metar Taf Metar & Taf Last 4 Metars F.Rules Stats Wind Profile Meteogram Temp Stats Airport Information Weather charts Add Link Nearby VenuesMetar ALERT Operation Metar Decoded Social comments